DW1549 Fauske NO current weather conditions

sailwx.info

Wind from 128 at 10 knots gusting 17

Air temperature 1.1° C
Dewpoint -2.1° C

Last reported at 2017-Mar-24 12:38 UTC.
Time now 2017-Mar-24 13:57 UTC

Location: N 67°16' E 015°25'.
View on Google Maps.

See reports from other nearby stations

  
Tides and Currents Weather Stations Pressure Air Temp Water Temp Dewpoint Dewpoint Depression Visibility Wind Speed Wind Dir Waves Ship Positions
date/time (UTC)wind fromknots sea level pressurealtimeterstation pressurevisibilityair tempwater tempwave heightnotes
2017-Mar-24 12:38 128 10 gusting 17 1.1
2017-Mar-24 12:28 115 10 gusting 17 1.7
2017-Mar-24 12:18 119 12 gusting 18 2.2
2017-Mar-24 12:08 123 12 gusting 18 2.2
2017-Mar-24 11:58 130 11 gusting 18 2.2
2017-Mar-24 11:48 124 12 gusting 20 2.2
2017-Mar-24 11:38 129 11 gusting 17 1.7
2017-Mar-24 11:28 116 11 gusting 17 1.7
2017-Mar-24 11:18 130 6 gusting 13 1.7
2017-Mar-24 10:48 125 12 gusting 17 1.7
2017-Mar-24 10:38 141 9 gusting 17 1.7
2017-Mar-24 10:28 133 7 gusting 14 1.1
2017-Mar-24 10:08 123 11 gusting 17 1.1
2017-Mar-24 09:58 109 10 gusting 15 1.1
2017-Mar-24 09:48 120 11 gusting 17 1.1
2017-Mar-24 09:38 129 8 gusting 13 1.1
2017-Mar-24 09:28 116 9 gusting 13 1.1
2017-Mar-24 09:18 107 6 gusting 13 1.1
2017-Mar-24 09:08 109 8 gusting 13 1.1
2017-Mar-24 08:58 107 6 gusting 13 1.1
2017-Mar-24 08:48 114 8 gusting 11 1.1
2017-Mar-24 08:38 120 7 gusting 13 0.6
2017-Mar-24 08:28 122 7 gusting 11 -0.0
2017-Mar-24 08:18 107 7 gusting 14 -0.0
2017-Mar-24 07:58 113 10 gusting 14 -0.6
2017-Mar-24 07:48 121 9 gusting 15 -0.6
2017-Mar-24 07:38 121 7 gusting 13 -0.6
2017-Mar-24 07:28 119 7 gusting 13 -1.1
2017-Mar-24 07:18 123 6 gusting 10 -1.1
2017-Mar-24 06:58 112 6 gusting 10 -1.7
2017-Mar-24 06:28 124 5 gusting 10 -1.7
2017-Mar-24 06:18 130 7 gusting 12 -1.7
2017-Mar-24 06:08 112 5 gusting 10 -1.7
2017-Mar-24 05:38 110 3 gusting 8 -1.7
2017-Mar-24 05:28 119 5 gusting 10 -1.7
2017-Mar-24 05:08 120 6 gusting 10 -2.2
2017-Mar-24 04:48 114 3 gusting 6 -2.2
2017-Mar-24 04:38 119 4 gusting 7 -2.8
2017-Mar-24 04:28 105 0 gusting 5 -2.8
2017-Mar-24 04:18 073 2 gusting 10 -3.9
2017-Mar-24 04:08 299 -3.9
2017-Mar-24 03:58 299 -3.9
2017-Mar-24 03:48 299 -3.9
2017-Mar-24 03:38 263 -3.9
2017-Mar-24 03:18 263 -3.9
2017-Mar-24 02:48 263 -3.9
2017-Mar-24 02:18 263 -4.4
2017-Mar-24 01:58 261 -4.4
2017-Mar-24 01:48 261 -3.9
2017-Mar-24 01:38 261 -3.3
2017-Mar-24 01:28 261 -3.3
2017-Mar-24 01:18 261 -3.3
2017-Mar-24 01:08 261 -3.3
2017-Mar-24 00:58 261 -3.3
2017-Mar-24 00:48 261 -3.3
2017-Mar-24 00:38 261 -3.3
2017-Mar-24 00:18 261 -2.8
2017-Mar-24 00:08 261 -2.8
2017-Mar-23 23:58 261 -2.8
2017-Mar-23 23:48 261 -2.8
2017-Mar-23 23:38 261 -2.8
2017-Mar-23 23:28 261 -2.8
2017-Mar-23 23:18 261 -2.8
2017-Mar-23 22:58 261 -2.8
2017-Mar-23 22:48 261 -2.2
2017-Mar-23 22:38 261 -2.8
2017-Mar-23 22:28 261 -2.8
2017-Mar-23 22:08 261 -2.8
2017-Mar-23 21:58 261 -2.2
2017-Mar-23 21:48 261 -2.2
2017-Mar-23 21:38 261 -2.2
2017-Mar-23 21:28 261 -2.2
2017-Mar-23 21:08 258 -2.2
2017-Mar-23 20:58 256 -1.7
2017-Mar-23 20:48 278 -1.7
2017-Mar-23 20:38 285 -1.7
2017-Mar-23 20:28 300 0 gusting 6 -1.7
2017-Mar-23 20:18 266 0 gusting 8 -2.2
2017-Mar-23 19:38 313 -2.8
2017-Mar-23 19:28 313 -2.8
2017-Mar-23 18:58 295 -2.8
2017-Mar-23 18:48 307 0 gusting 5 -2.8
2017-Mar-23 18:38 327 -2.8
2017-Mar-23 18:08 301 -3.3
2017-Mar-23 17:58 301 -3.3
2017-Mar-23 17:48 301 0 gusting 2 -3.3
2017-Mar-23 17:38 273 -3.3
2017-Mar-23 17:28 273 -2.8
2017-Mar-23 17:08 301 -2.2
2017-Mar-23 16:38 323 -1.7
2017-Mar-23 16:18 262 -2.2
2017-Mar-23 16:08 292 -2.2
2017-Mar-23 15:58 229 0 gusting 4 -2.2
2017-Mar-23 15:08 242 4 gusting 11 -0.6
2017-Mar-23 14:58 282 4 gusting 10 -0.6
2017-Mar-23 14:48 269 2 gusting 8 -0.0
2017-Mar-23 14:28 247 0 gusting 11 -0.6
2017-Mar-23 13:58 280 2 gusting 7 -0.0
2017-Mar-23 13:48 299 -0.6
2017-Mar-23 13:28 240 -1.1
2017-Mar-23 12:48 255 5 gusting 15 0.6
2017-Mar-23 12:38 266 4 gusting 11 0.6
2017-Mar-23 12:28 242 1 gusting 8 0.6
2017-Mar-23 12:18 236 2 gusting 10 0.6
2017-Mar-23 12:08 220 6 gusting 13 0.6
2017-Mar-23 11:48 244 0 gusting 11 1.1
2017-Mar-23 11:38 258 0 gusting 11 1.1
2017-Mar-23 11:08 321 1 gusting 8 0.6
2017-Mar-23 10:58 267 1 gusting 10 0.6
2017-Mar-23 10:48 238 1 gusting 7 -0.6
2017-Mar-23 10:38 295 0 gusting 6 -1.1
2017-Mar-23 10:28 265 0 gusting 13 -1.1
2017-Mar-23 10:18 278 0 gusting 10 -1.1
2017-Mar-23 10:08 266 3 gusting 11 -0.6
2017-Mar-23 09:58 239 1 gusting 6 -0.6
2017-Mar-23 09:48 222 0 gusting 4 -1.1
2017-Mar-23 09:38 191 0 gusting 4 -1.1
2017-Mar-23 09:28 233 2 gusting 5 -0.6
2017-Mar-23 09:18 254 0 gusting 5 -0.6
2017-Mar-23 09:08 223 1 gusting 5 -0.6
2017-Mar-23 08:58 254 0 gusting 10 -0.6
2017-Mar-23 08:48 259 5 gusting 13 -0.6
2017-Mar-23 08:38 243 6 gusting 15 -0.6
2017-Mar-23 08:18 235 5 gusting 13 -0.0
2017-Mar-23 07:58 268 0 gusting 6 -0.0
2017-Mar-23 07:48 245 1 gusting 10 -0.0
2017-Mar-23 07:38 245 3 gusting 10 -0.0
2017-Mar-23 07:18 246 2 gusting 12 -0.0
2017-Mar-23 06:58 286 -0.6
2017-Mar-23 06:38 028 -0.6
2017-Mar-23 06:28 028 -0.6
2017-Mar-23 06:18 042 -0.6
2017-Mar-23 06:08 247 -0.6
2017-Mar-23 05:58 298 -0.6
2017-Mar-23 05:38 284 3 gusting 12 -1.1
2017-Mar-23 05:28 248 2 gusting 11 -1.1
2017-Mar-23 05:08 229 4 gusting 17 -1.7
2017-Mar-23 04:58 301 2 gusting 12 -1.7
2017-Mar-23 04:48 243 1 gusting 7 -2.2
2017-Mar-23 04:38 167 5 gusting 8 -1.7
2017-Mar-23 04:28 198 2 gusting 5 -1.7
2017-Mar-23 04:18 250 -1.7
2017-Mar-23 04:08 251 -1.7
2017-Mar-23 03:48 237 1 gusting 8 -1.7
2017-Mar-23 03:38 161 4 gusting 10 -1.7
2017-Mar-23 03:28 140 2 gusting 8 -1.7
2017-Mar-23 03:18 151 -1.7
2017-Mar-23 03:08 151 1 gusting 5 -1.7
2017-Mar-23 02:58 167 -1.7
2017-Mar-23 02:48 168 -1.7
2017-Mar-23 02:28 208 0 gusting 5 -1.7
2017-Mar-23 02:18 215 0 gusting 10 -1.1
2017-Mar-23 01:58 174 2 gusting 5 -1.1
2017-Mar-23 01:48 187 3 gusting 7 -1.1
2017-Mar-23 01:38 199 5 gusting 10 -0.6
2017-Mar-23 01:28 195 2 gusting 13 -0.6
2017-Mar-23 01:18 174 7 gusting 14 -0.0
2017-Mar-23 01:08 155 6 gusting 12 -0.0
2017-Mar-23 00:58 145 7 gusting 13 -0.6
2017-Mar-23 00:48 166 9 gusting 15 -0.6
2017-Mar-23 00:38 168 6 gusting 12 -0.6
2017-Mar-23 00:28 171 6 gusting 10 -0.6
2017-Mar-23 00:18 184 5 gusting 8 -0.6
2017-Mar-23 00:08 169 2 gusting 12 -0.0
2017-Mar-22 23:48 175 1 gusting 11 -0.0
2017-Mar-22 23:38 190 3 gusting 8 -0.0
2017-Mar-22 23:28 237 -0.0
2017-Mar-22 23:18 237 0.6
2017-Mar-22 23:08 245 0.6
2017-Mar-22 22:58 247 4 gusting 8 -0.0
2017-Mar-22 22:48 298 -0.6
2017-Mar-22 21:58 298 -0.0
2017-Mar-22 21:38 317 0.6
2017-Mar-22 21:28 260 1 gusting 5 0.6
2017-Mar-22 21:08 255 5 gusting 14 0.6
2017-Mar-22 20:58 219 6 gusting 14 0.6
2017-Mar-22 20:48 320 1 gusting 11 1.1
2017-Mar-22 20:38 291 6 gusting 15 1.1
2017-Mar-22 20:28 263 6 gusting 18 1.1
2017-Mar-22 20:18 263 4 gusting 15 1.1
2017-Mar-22 19:48 248 7 gusting 20 1.1
2017-Mar-22 19:38 234 11 gusting 25 1.1
2017-Mar-22 19:28 274 6 gusting 17 1.1
2017-Mar-22 19:18 234 6 gusting 20 1.1
2017-Mar-22 19:08 264 5 gusting 17 0.6
2017-Mar-22 18:58 252 6 gusting 15 0.6
2017-Mar-22 18:48 254 9 gusting 18 0.6
2017-Mar-22 18:38 256 5 gusting 14 1.1
2017-Mar-22 18:28 260 7 gusting 13 1.1
2017-Mar-22 18:18 244 7 gusting 15 1.1
2017-Mar-22 18:08 249 5 gusting 12 1.1
2017-Mar-22 17:58 279 5 gusting 10 1.1
2017-Mar-22 17:48 252 4 gusting 13 1.1
2017-Mar-22 17:38 243 3 gusting 12 1.1
2017-Mar-22 17:28 251 4 gusting 11 1.1
2017-Mar-22 17:18 226 2 gusting 10 1.1
2017-Mar-22 17:08 211 1.1
2017-Mar-22 16:58 241 1 gusting 6 1.7
2017-Mar-22 16:48 273 2.2
2017-Mar-22 16:28 222 2.8
2017-Mar-22 16:18 246 1 gusting 8 3.3
2017-Mar-22 15:58 125 5 gusting 12 3.3
2017-Mar-22 15:38 126 2 gusting 10 3.3
2017-Mar-22 15:28 119 4 gusting 11 3.3
2017-Mar-22 15:18 116 5 gusting 13 3.3
2017-Mar-22 15:08 111 6 gusting 12 3.9
2017-Mar-22 14:58 112 8 gusting 13 3.3
2017-Mar-22 14:38 120 7 gusting 13 3.3
2017-Mar-22 14:28 121 7 gusting 12 3.3
2017-Mar-22 14:18 112 7 gusting 13 3.3
2017-Mar-22 14:08 122 7 gusting 14 3.3
2017-Mar-22 13:58 130 10 gusting 13 3.3
2017-Mar-22 13:38 133 9 gusting 13 3.3
2017-Mar-22 13:28 126 6 gusting 12 2.8
2017-Mar-22 13:18 141 7 gusting 13 3.3
2017-Mar-22 13:08 143 6 gusting 11 3.3